OIFK  Kashan  Airport

Iran

Add Bookmark
ICAO OIFK
Type Airport
Status Operational
Latitude
33° 53' 43" N
33.895302
Longitude
51° 34' 37" E
51.577000
Local (GMT +4.5 ) UTC
Jul 25, 2016 04:39 am Jul 25, 2016 00:09
Sunrise-Sunset Local UTC
Begin Civil Twilight 05:41 am 01:11
Sunrise 06:09 am 01:39
Sunset 08:10 pm 15:40
End Civil Twilight 08:38 pm 16:08
VFR
VFR
MVFR
MVFR
IFR
IFR
LIFR
LIFR
Unknown
Unavailable

Current Weather

METAR Observed VFR
OIFK 141900Z 15010KT CAVOK 33/10 Q1011 Thu, Jul 14, 2016 @ 19:00 UTC
(1 Week, 3 Days, 5 Hours, 9 Minutes ago)
Visual Flight Rules
Wind Visibility Conditions
150° at 10 knots (19 kph) 10 km or more
  • No significant weather
Temperatures Readings Precipitation
Current Temp
33°C
91°F
Dewpoint
10°C
50°F
Humidity 24%
Altimeter 29.85" Hg
Sea Level Pressure 1,011 mb
Field Elevation
982 m
3,222 ft
None Recorded
-
-

CheckWX.com is intended as a tool to help pilots better visualize weather data. It is not intended as a substitute for an official weather briefing obtained from a Flight Service Station. CheckWX.com does not meet the FAA requirements for an official pre-flight weather briefing. Therefore, it's important that pilots still call and obtain an official FSS pre-flight weather briefing.

© 2007-2016 CheckWX.com
00:09:31 UTC